Weather History for Marshfield, MA

Change the Weather History Date:

Monday, October 29, 2012

  Actual Average (KPYM) Record (KPYM)
Temperature  
Mean Temperature 58 °F -  
Max Temperature 62 °F 59 °F 76 °F (1989)
Min Temperature 55 °F 36 °F 24 °F (1976)
Degree Days  
Heating Degree Days 6    
Growing Degree Days 8 (Base 50)    
Moisture  
Dew Point 57 °F    
Average Humidity 96    
Maximum Humidity 100    
Minimum Humidity 94    
Precipitation  
Precipitation 0.35 in - - ()
Sea Level Pressure  
Sea Level Pressure 29.46 in    
Wind  
Wind Speed 23 mph (NE)    
Max Wind Speed 39 mph    
Max Gust Speed 55 mph    
Visibility 4 miles    
Events Fog , Rain    
Averages and records for this station are not official NWS values.
T = Trace of Precipitation, MM = Missing Value Source: NWS Daily Summary

Daily Weather History Graph

Daily Weather History Graph

Search for Another Location

Airport:

Trip Planner

Search our weather history database for the weather conditions in past years. The results will help you decide how hot, cold, wet, or windy it might be!

Date:

Astronomy

Oct. 29, 2012 Rise Set
Actual Time 7:12 AM EDT 5:39 PM EDT
Civil Twilight 6:43 AM EDT 6:08 PM EDT
Nautical Twilight 6:10 AM EDT 6:41 PM EDT
Astronomical Twilight 5:38 AM EDT 7:13 PM EDT
Moon 5:29 PM EDT (10/29) 7:00 AM EDT (10/29)
Length of Visible Light 11h 25m
Length of Day
10h 27m
Full, 100% of the Moon is Illuminated
Oct 29
Full
Oct 29
Full
Nov 6
Last Quarter
Nov 13
New
Nov 20
First Quarter

Hourly Weather History & Observations

Time (EDT) Temp. Dew Point Humidity Pressure Visibility Wind Dir Wind Speed Gust Speed Precip Events Conditions
12:15 AM 55.4 °F 53.6 °F 94% 29.75 in 10.0 mi NNE 13.8 mph 25.3 mph N/A   Overcast
12:35 AM 55.4 °F 53.6 °F 94% 29.75 in 3.0 mi NE 20.7 mph 27.6 mph N/A Rain Light Rain
12:55 AM 55.4 °F 53.6 °F 94% 29.74 in 7.0 mi NE 23.0 mph 28.8 mph N/A   Light Drizzle
1:15 AM 55.4 °F 53.6 °F 94% 29.73 in 10.0 mi NE 18.4 mph 29.9 mph N/A   Overcast
1:35 AM 55.4 °F 53.6 °F 94% 29.73 in 10.0 mi NE 20.7 mph 32.2 mph N/A Rain Light Rain
1:55 AM 55.4 °F 53.6 °F 94% 29.73 in 5.0 mi NE 26.5 mph 31.1 mph N/A   Overcast
2:15 AM 55.4 °F 53.6 °F 94% 29.72 in 7.0 mi NE 21.9 mph 28.8 mph N/A   Overcast
2:35 AM 55.4 °F 53.6 °F 94% 29.71 in 5.0 mi NE 17.3 mph 25.3 mph N/A   Light Drizzle
2:55 AM 55.4 °F 53.6 °F 94% 29.69 in 5.0 mi NE 13.8 mph 26.5 mph N/A Rain Light Rain
3:15 AM 55.4 °F 53.6 °F 94% 29.68 in 8.0 mi NNE 18.4 mph 29.9 mph 0.01 in   Light Drizzle
3:35 AM 55.4 °F 53.6 °F 94% 29.67 in 5.0 mi NNE 17.3 mph 28.8 mph 0.01 in   Overcast
3:55 AM 55.4 °F 53.6 °F 94% 29.66 in 10.0 mi NNE 19.6 mph 27.6 mph 0.01 in   Overcast
4:15 AM 55.4 °F 53.6 °F 94% 29.65 in 9.0 mi NNE 17.3 mph 27.6 mph N/A   Overcast
4:35 AM 55.4 °F 53.6 °F 94% 29.64 in 5.0 mi NNE 23.0 mph 36.8 mph N/A   Overcast
4:55 AM 55.4 °F 53.6 °F 94% 29.63 in 7.0 mi NNE 19.6 mph 32.2 mph N/A   Light Drizzle
5:15 AM 55.4 °F 53.6 °F 94% 29.62 in 2.5 mi NNE 21.9 mph 35.7 mph N/A   Overcast
5:35 AM 55.4 °F 53.6 °F 94% 29.61 in 2.0 mi NNE 15.0 mph 28.8 mph N/A Rain Light Rain
5:55 AM 55.4 °F 53.6 °F 94% 29.60 in 4.0 mi NE 18.4 mph 29.9 mph N/A   Light Drizzle
7:15 AM 55.4 °F 55.4 °F 100% 29.58 in 1.5 mi NE 23.0 mph 32.2 mph 0.01 in   Light Drizzle
7:35 AM 55.4 °F 55.4 °F 100% 29.58 in 1.5 mi NE 25.3 mph 33.4 mph 0.01 in Rain Light Rain
7:55 AM 55.4 °F 55.4 °F 100% 29.58 in 1.8 mi NE 19.6 mph 32.2 mph 0.01 in   Light Drizzle
8:15 AM 55.4 °F 55.4 °F 100% 29.57 in 4.0 mi NE 24.2 mph 41.4 mph N/A   Light Drizzle
8:35 AM 55.4 °F 55.4 °F 100% 29.56 in 2.0 mi NNE 21.9 mph 36.8 mph N/A Rain Rain
8:55 AM 57.2 °F 55.4 °F 94% 29.55 in 2.5 mi NE 21.9 mph 36.8 mph N/A Rain Light Rain
9:15 AM 57.2 °F 55.4 °F 94% 29.54 in 2.0 mi NE 20.7 mph 32.2 mph N/A Rain Light Rain
9:35 AM 57.2 °F 55.4 °F 94% 29.53 in 3.0 mi NE 24.2 mph 34.5 mph N/A   Light Drizzle
9:55 AM 57.2 °F 55.4 °F 94% 29.51 in 0.8 mi NE 20.7 mph 34.5 mph N/A Rain Rain
10:15 AM 57.2 °F 57.2 °F 100% 29.50 in 1.2 mi NE 23.0 mph 36.8 mph N/A Rain Light Rain
10:35 AM 57.2 °F 57.2 °F 100% 29.49 in 2.5 mi NE 26.5 mph 38.0 mph N/A Rain Light Rain
10:55 AM 57.2 °F 57.2 °F 100% 29.47 in 2.5 mi NE 27.6 mph 39.1 mph N/A Rain Light Rain
11:15 AM 57.2 °F 57.2 °F 100% 29.45 in 5.0 mi NE 28.8 mph 39.1 mph N/A Rain Light Rain
11:35 AM 57.2 °F 57.2 °F 100% 29.43 in 5.0 mi NE 24.2 mph 39.1 mph N/A Rain Light Rain
11:55 AM 59.0 °F 57.2 °F 94% 29.42 in 4.0 mi NE 26.5 mph 38.0 mph N/A Rain Light Rain
12:15 PM 59.0 °F 57.2 °F 94% 29.40 in 3.0 mi NE 28.8 mph 43.7 mph N/A   Light Drizzle
12:35 PM 59.0 °F 57.2 °F 94% 29.38 in 3.0 mi NE 27.6 mph 43.7 mph N/A   Scattered Clouds
12:55 PM 59.0 °F 57.2 °F 94% 29.35 in 3.0 mi NE 33.4 mph 42.6 mph N/A   Scattered Clouds
1:35 PM 59.0 °F 57.2 °F 94% 29.32 in 1.5 mi NE 35.7 mph 49.5 mph 0.01 in Rain Rain
1:55 PM 59.0 °F 57.2 °F 94% 29.30 in 0.5 mi NE 38.0 mph 51.8 mph 0.08 in Fog Fog
2:15 PM 59.0 °F 57.2 °F 94% 29.28 in 1.5 mi NE 36.8 mph 51.8 mph 0.01 in Rain Heavy Rain
2:35 PM 59.0 °F 57.2 °F 94% 29.26 in 2.0 mi NE 34.5 mph 55.2 mph 0.01 in Rain Light Rain
2:55 PM 59.0 °F 57.2 °F 94% 29.25 in 0.8 mi NE 36.8 mph 52.9 mph 0.07 in Rain Rain
3:15 PM 60.8 °F 59.0 °F 94% 29.24 in 2.5 mi NE 38.0 mph 51.8 mph N/A   Drizzle
3:35 PM 60.8 °F 59.0 °F 94% 29.24 in 1.2 mi NE 39.1 mph 54.1 mph N/A Rain Rain
3:55 PM 60.8 °F 59.0 °F 94% 29.23 in 1.5 mi ENE 33.4 mph 47.2 mph N/A   Overcast
4:15 PM 60.8 °F 59.0 °F 94% 29.23 in 1.0 mi ENE 27.6 mph 50.6 mph 0.01 in Rain Light Rain
4:35 PM 60.8 °F 59.0 °F 94% 29.24 in 1.2 mi ENE 29.9 mph 43.7 mph 0.02 in Rain Light Rain
4:55 PM 60.8 °F 60.8 °F 100% 29.24 in 1.5 mi ENE 28.8 mph 42.6 mph 0.03 in Rain Light Rain
5:15 PM 62.6 °F 60.8 °F 94% 29.25 in 2.5 mi ENE 28.8 mph 41.4 mph N/A Rain Light Rain
5:35 PM 62.6 °F 60.8 °F 94% 29.26 in 3.0 mi ENE 28.8 mph 42.6 mph N/A   Overcast
5:55 PM 62.6 °F 60.8 °F 94% 29.26 in 5.0 mi East 28.8 mph 42.6 mph N/A   Overcast
6:15 PM 62.6 °F 60.8 °F 94% 29.27 in 3.0 mi ENE 28.8 mph 43.7 mph N/A   Overcast
6:35 PM 62.6 °F 60.8 °F 94% 29.26 in 4.0 mi East 27.6 mph 46.0 mph N/A   Overcast
6:55 PM 62.6 °F 60.8 °F 94% 29.25 in 3.0 mi ENE 27.6 mph 41.4 mph N/A   Overcast
7:15 PM 62.6 °F 60.8 °F 94% 29.24 in 1.8 mi East 24.2 mph 38.0 mph 0.04 in   Overcast
7:35 PM 60.8 °F 60.8 °F 100% 29.24 in 3.0 mi ENE 29.9 mph 40.3 mph 0.04 in Rain Light Rain
7:55 PM 60.8 °F 60.8 °F 100% 29.24 in 3.0 mi ENE 28.8 mph 40.3 mph 0.04 in   Overcast
8:15 PM 60.8 °F 60.8 °F 100% 29.23 in 2.0 mi ENE 28.8 mph 43.7 mph 0.04 in   Overcast
8:35 PM 60.8 °F 60.8 °F 100% 29.24 in 1.2 mi East 17.3 mph 32.2 mph 0.11 in Rain Rain
11:35 PM 60.8 °F 60.8 °F 100% 29.32 in 5.0 mi East 15.0 mph 18.4 mph N/A   Mostly Cloudy
11:55 PM 60.8 °F 59.0 °F 94% 29.33 in 5.0 mi East 13.8 mph 21.9 mph N/A   Scattered Clouds